createdAt,value
2022-08-17T00:00:34.937Z,66.63
2022-08-17T00:03:10.139Z,64.48
2022-08-17T00:05:43.638Z,55.72
2022-08-17T00:08:14.776Z,53.73
2022-08-17T00:10:44.098Z,55.79
2022-08-17T00:13:26.045Z,57.99
2022-08-17T00:15:59.777Z,64.46
2022-08-17T00:19:00.898Z,66.25
2022-08-17T00:21:23.908Z,58.47
2022-08-17T00:23:53.780Z,55.96
2022-08-17T00:26:34.650Z,58.00
2022-08-17T00:29:14.923Z,63.92
2022-08-17T00:31:48.863Z,64.75
2022-08-17T00:34:17.080Z,57.65
2022-08-17T00:36:45.018Z,54.85
2022-08-17T00:39:12.718Z,56.77
2022-08-17T00:41:42.510Z,61.13
2022-08-17T00:44:12.161Z,59.31
2022-08-17T00:46:42.191Z,59.49
2022-08-17T00:49:11.576Z,56.05
2022-08-17T00:51:54.815Z,57.40
2022-08-17T00:54:27.091Z,61.89
2022-08-17T00:56:59.190Z,59.14
2022-08-17T00:59:33.301Z,58.75
2022-08-17T01:02:02.639Z,55.46
2022-08-17T01:04:32.162Z,57.06
2022-08-17T01:09:30.071Z,59.17
2022-08-17T01:11:57.807Z,58.99
2022-08-17T01:14:26.117Z,55.45
2022-08-17T01:16:55.733Z,57.11
2022-08-17T01:22:07.368Z,58.71
2022-08-17T01:24:37.297Z,58.37
2022-08-17T01:27:10.086Z,55.28
2022-08-17T01:29:41.111Z,56.72
2022-08-17T01:37:14.208Z,60.06
2022-08-17T01:39:42.129Z,55.99
2022-08-17T01:50:04.122Z,59.07
2022-08-17T01:52:32.107Z,56.60
2022-08-17T02:02:31.175Z,60.64
2022-08-17T02:04:59.744Z,56.40
2022-08-17T02:07:28.114Z,57.99
2022-08-17T02:15:09.940Z,59.53
2022-08-17T02:17:37.781Z,56.38
2022-08-17T02:20:06.272Z,57.95
2022-08-17T02:27:31.927Z,57.05
2022-08-17T02:29:59.531Z,56.24
2022-08-17T02:32:28.645Z,53.43
2022-08-17T02:34:58.019Z,55.63
2022-08-17T02:37:27.493Z,57.86
2022-08-17T02:42:38.401Z,59.11
2022-08-17T02:45:19.932Z,58.99
2022-08-17T02:47:47.624Z,55.22
2022-08-17T02:50:17.843Z,57.25
2022-08-17T02:58:03.725Z,59.54
2022-08-17T03:00:51.100Z,55.48
2022-08-17T03:03:19.071Z,56.56
2022-08-17T03:05:51.297Z,63.78
2022-08-17T03:10:47.455Z,56.47
2022-08-17T03:13:15.707Z,55.41
2022-08-17T03:15:45.501Z,53.55
2022-08-17T03:18:20.109Z,56.27
2022-08-17T03:23:29.675Z,59.16
2022-08-17T03:25:59.714Z,59.01
2022-08-17T03:28:28.339Z,55.24
2022-08-17T03:30:56.092Z,57.37
2022-08-17T03:40:58.866Z,55.63
2022-08-17T03:49:16.052Z,65.76
2022-08-17T03:52:02.529Z,57.64
2022-08-17T03:54:49.289Z,54.24
2022-08-17T03:57:17.531Z,55.68
2022-08-17T04:07:20.898Z,56.49
2022-08-17T04:09:48.808Z,54.04
2022-08-17T04:19:55.765Z,57.36
2022-08-17T04:22:31.095Z,55.18
2022-08-17T04:25:07.147Z,56.30
2022-08-17T04:33:04.973Z,59.64
2022-08-17T04:35:21.568Z,55.48
2022-08-17T04:37:49.787Z,57.57
2022-08-17T04:43:08.732Z,59.21
2022-08-17T04:45:51.298Z,59.27
2022-08-17T04:48:29.828Z,55.35
2022-08-17T04:51:07.410Z,58.79
2022-08-17T04:58:32.302Z,59.29
2022-08-17T05:01:00.292Z,57.41
2022-08-17T05:10:52.151Z,59.25
2022-08-17T05:13:25.135Z,56.99
2022-08-17T05:15:55.199Z,56.27
2022-08-17T05:20:52.730Z,58.40
2022-08-17T05:23:22.709Z,58.24
2022-08-17T05:25:52.617Z,55.20
2022-08-17T05:28:24.112Z,55.31
2022-08-17T05:30:56.747Z,57.30
2022-08-17T05:38:28.118Z,59.35
2022-08-17T05:40:56.659Z,55.22
2022-08-17T05:43:30.302Z,56.72
2022-08-17T05:46:13.193Z,59.47
2022-08-17T05:54:23.521Z,56.73
2022-08-17T05:57:05.873Z,53.49
2022-08-17T05:59:57.369Z,54.77
2022-08-17T06:02:51.327Z,56.53
2022-08-17T06:11:24.103Z,56.19
2022-08-17T06:14:09.808Z,53.47
2022-08-17T06:22:16.573Z,58.30
2022-08-17T06:30:25.488Z,58.98
2022-08-17T06:41:29.164Z,58.27
2022-08-17T06:50:15.632Z,59.02
2022-08-17T06:56:09.353Z,54.69
2022-08-17T07:17:11.434Z,54.85
2022-08-17T07:51:33.868Z,52.46
2022-08-17T09:45:34.825Z,31.49
2022-08-17T09:48:10.586Z,30.62
2022-08-17T09:51:12.829Z,30.21
2022-08-17T09:53:41.434Z,30.91
2022-08-17T09:56:32.458Z,31.60
2022-08-17T09:59:20.169Z,31.92
2022-08-17T10:02:25.948Z,30.91
2022-08-17T10:04:53.748Z,30.89
2022-08-17T10:07:32.509Z,30.71
2022-08-17T10:10:14.425Z,31.90
2022-08-17T10:13:11.088Z,32.62
2022-08-17T10:15:46.893Z,32.30
2022-08-17T10:18:21.445Z,31.54
2022-08-17T10:20:49.089Z,31.04
2022-08-17T10:23:45.306Z,31.77
2022-08-17T10:26:18.896Z,32.86
2022-08-17T10:29:01.764Z,33.03
2022-08-17T10:31:37.701Z,33.92
2022-08-17T10:34:30.011Z,35.09
2022-08-17T10:37:06.784Z,35.52
2022-08-17T10:40:00.859Z,35.74
2022-08-17T10:42:33.170Z,36.41
2022-08-17T10:45:16.420Z,36.95
2022-08-17T10:48:05.781Z,36.85
2022-08-17T10:50:49.715Z,35.87
2022-08-17T10:53:32.665Z,37.30
2022-08-17T10:56:22.364Z,36.36
2022-08-17T10:58:57.341Z,35.06
2022-08-17T11:01:34.215Z,32.49
2022-08-17T11:04:42.648Z,33.17
2022-08-17T11:07:35.274Z,33.94
2022-08-17T11:10:46.479Z,35.08
2022-08-17T11:13:30.197Z,35.75
2022-08-17T11:16:10.005Z,36.29
2022-08-17T11:19:14.673Z,37.89
2022-08-17T11:22:00.853Z,36.74
2022-08-17T11:24:40.480Z,36.56
2022-08-17T11:27:29.532Z,35.13
2022-08-17T11:30:02.509Z,33.81
2022-08-17T11:32:48.690Z,33.09
2022-08-17T11:35:20.702Z,33.80
2022-08-17T11:38:01.845Z,33.80
2022-08-17T11:40:36.210Z,35.19
2022-08-17T11:43:09.794Z,34.97
2022-08-17T11:46:14.773Z,35.42
2022-08-17T11:49:17.550Z,36.33
2022-08-17T11:52:32.292Z,37.19
2022-08-17T11:55:17.766Z,37.25
2022-08-17T11:58:02.341Z,36.22
2022-08-17T12:00:45.232Z,35.86
2022-08-17T12:03:43.286Z,36.65
2022-08-17T12:06:30.434Z,36.90
2022-08-17T12:09:09.266Z,36.34
2022-08-17T12:12:01.707Z,36.10
2022-08-17T12:15:07.994Z,33.86
2022-08-17T12:17:41.670Z,34.02
2022-08-17T12:20:13.866Z,32.84
2022-08-17T12:22:54.911Z,31.50
2022-08-17T12:25:33.116Z,31.35
2022-08-17T12:28:05.121Z,31.74
2022-08-17T12:30:35.899Z,30.98
2022-08-17T12:33:03.971Z,29.96
2022-08-17T12:35:35.257Z,27.82
2022-08-17T12:38:28.105Z,29.07
2022-08-17T12:40:58.275Z,28.72
2022-08-17T12:43:32.841Z,27.66
2022-08-17T12:46:14.794Z,25.88
2022-08-17T12:48:59.389Z,25.20
2022-08-17T12:51:29.197Z,25.19
2022-08-17T12:53:57.442Z,25.53
2022-08-17T12:56:25.258Z,26.50
2022-08-17T12:58:54.452Z,26.83
2022-08-17T13:01:25.052Z,26.73
2022-08-17T13:03:59.791Z,26.16
2022-08-17T13:06:34.193Z,25.12
2022-08-17T13:09:15.353Z,25.61
2022-08-17T13:11:49.290Z,25.87
2022-08-17T13:14:18.625Z,26.75
2022-08-17T13:16:59.562Z,27.75
2022-08-17T13:19:40.172Z,28.69
2022-08-17T13:22:12.928Z,29.69
2022-08-17T13:24:53.128Z,30.22
2022-08-17T13:27:24.405Z,30.19
2022-08-17T13:29:57.340Z,30.43
2022-08-17T13:32:31.110Z,30.70
2022-08-17T13:35:14.156Z,31.77
2022-08-17T13:37:59.581Z,31.42
2022-08-17T13:40:50.286Z,31.28
2022-08-17T13:43:37.358Z,31.65
2022-08-17T13:46:17.675Z,31.41
2022-08-17T13:48:46.013Z,31.25
2022-08-17T13:51:18.664Z,30.70
2022-08-17T13:53:50.506Z,31.10
2022-08-17T13:56:31.667Z,30.73
2022-08-17T13:59:08.056Z,30.53
2022-08-17T14:01:37.042Z,30.68
2022-08-17T14:04:17.431Z,29.95
2022-08-17T14:06:55.644Z,29.68
2022-08-17T14:09:36.795Z,29.23
2022-08-17T14:12:12.587Z,28.93
2022-08-17T14:14:40.816Z,28.58
2022-08-17T14:17:09.648Z,29.49
2022-08-17T14:19:37.456Z,29.71
2022-08-17T14:22:09.053Z,29.42
2022-08-17T14:24:44.629Z,29.57
2022-08-17T14:27:12.726Z,29.09
2022-08-17T14:29:44.001Z,29.47
2022-08-17T14:32:19.004Z,29.37
2022-08-17T14:34:49.556Z,30.30
2022-08-17T14:37:18.466Z,30.88
2022-08-17T14:39:46.276Z,31.40
2022-08-17T14:42:17.591Z,31.38
2022-08-17T14:44:45.150Z,31.51
2022-08-17T14:47:15.930Z,31.44
2022-08-17T14:49:43.870Z,31.53
2022-08-17T14:52:21.583Z,32.38
2022-08-17T14:54:54.021Z,32.28
2022-08-17T14:57:33.764Z,32.14
2022-08-17T15:00:04.480Z,32.16
2022-08-17T15:02:46.742Z,32.13
2022-08-17T15:05:16.387Z,32.44
2022-08-17T15:07:44.601Z,32.47
2022-08-17T15:10:14.310Z,32.84
2022-08-17T15:12:42.359Z,33.04
2022-08-17T15:15:14.447Z,32.51
2022-08-17T15:17:46.034Z,33.48
2022-08-17T15:20:18.528Z,34.04
2022-08-17T15:22:49.915Z,33.58
2022-08-17T15:25:19.127Z,33.11
2022-08-17T15:27:47.661Z,33.51
2022-08-17T15:30:15.812Z,34.69
2022-08-17T15:32:51.263Z,35.42
2022-08-17T15:35:28.359Z,36.80
2022-08-17T15:38:11.712Z,37.61
2022-08-17T15:40:45.640Z,37.78
2022-08-17T15:43:27.261Z,38.32
2022-08-17T15:46:10.549Z,38.50
2022-08-17T15:48:41.808Z,39.76
2022-08-17T15:51:14.051Z,40.90
2022-08-17T15:53:42.887Z,41.43
2022-08-17T15:56:11.314Z,41.13
2022-08-17T15:58:40.215Z,42.88
2022-08-17T16:01:16.458Z,43.88
2022-08-17T16:04:04.731Z,45.22
2022-08-17T16:06:35.061Z,44.93
2022-08-17T16:09:02.766Z,45.57
2022-08-17T16:11:30.404Z,46.28
2022-08-17T16:13:58.073Z,46.72
2022-08-17T16:16:26.130Z,47.05
2022-08-17T16:18:58.798Z,47.50
2022-08-17T16:21:27.549Z,47.96
2022-08-17T16:24:00.233Z,48.85
2022-08-17T16:26:29.476Z,49.25
2022-08-17T16:28:59.432Z,50.07
2022-08-17T16:31:27.684Z,50.90
2022-08-17T16:33:58.480Z,51.28
2022-08-17T16:36:55.182Z,51.34
2022-08-17T16:39:26.660Z,52.26
2022-08-17T16:41:56.082Z,53.15
2022-08-17T16:44:29.034Z,53.81
2022-08-17T16:46:57.510Z,53.99
2022-08-17T16:49:37.332Z,54.78
2022-08-17T16:52:10.168Z,55.08
2022-08-17T16:54:43.654Z,55.90
2022-08-17T16:57:13.414Z,56.56
2022-08-17T16:59:44.984Z,57.05
2022-08-17T17:02:23.511Z,57.31
2022-08-17T17:05:04.676Z,57.46
2022-08-17T17:08:01.704Z,57.46
2022-08-17T17:10:50.841Z,57.68
2022-08-17T17:13:27.956Z,57.63
2022-08-17T17:16:21.728Z,57.98
2022-08-17T17:19:07.962Z,58.64
2022-08-17T17:21:52.913Z,59.25
2022-08-17T17:24:30.305Z,59.65
2022-08-17T17:27:22.845Z,59.97
2022-08-17T17:30:07.447Z,60.17
2022-08-17T17:32:38.170Z,60.19
2022-08-17T17:35:18.908Z,60.64
2022-08-17T17:37:47.551Z,60.16
2022-08-17T17:40:24.524Z,66.49
2022-08-17T17:42:55.251Z,70.28
2022-08-17T17:45:32.076Z,60.11
2022-08-17T17:47:59.766Z,54.28
2022-08-17T17:50:36.511Z,54.31
2022-08-17T17:53:19.204Z,55.07
2022-08-17T17:56:44.282Z,56.19
2022-08-17T17:59:32.902Z,57.17
2022-08-17T18:02:51.571Z,58.48
2022-08-17T18:05:48.779Z,58.74
2022-08-17T18:08:34.387Z,66.14
2022-08-17T18:11:14.951Z,68.88
2022-08-17T18:14:14.874Z,58.61
2022-08-17T18:16:43.258Z,53.88
2022-08-17T18:19:15.731Z,54.87
2022-08-17T18:21:48.629Z,56.16
2022-08-17T18:24:29.315Z,57.15
2022-08-17T18:26:59.698Z,58.10
2022-08-17T18:29:35.868Z,63.79
2022-08-17T18:32:24.617Z,67.66
2022-08-17T18:35:18.232Z,58.72
2022-08-17T18:38:10.347Z,54.10
2022-08-17T18:40:38.543Z,55.16
2022-08-17T18:43:28.179Z,57.32
2022-08-17T18:46:17.922Z,57.62
2022-08-17T18:49:00.477Z,64.63
2022-08-17T18:51:42.117Z,66.57
2022-08-17T18:54:21.326Z,57.88
2022-08-17T18:56:57.862Z,53.76
2022-08-17T18:59:42.080Z,54.55
2022-08-17T19:02:20.647Z,55.75
2022-08-17T19:05:27.296Z,56.93
2022-08-17T19:08:16.062Z,57.99
2022-08-17T19:10:47.356Z,65.71
2022-08-17T19:13:24.555Z,66.93
2022-08-17T19:16:14.001Z,58.23
2022-08-17T19:18:54.184Z,54.07
2022-08-17T19:21:27.026Z,55.44
2022-08-17T19:24:00.678Z,57.32
2022-08-17T19:26:53.928Z,58.71
2022-08-17T19:29:42.002Z,65.62
2022-08-17T19:32:16.536Z,67.50
2022-08-17T19:34:44.731Z,57.80
2022-08-17T19:37:26.292Z,54.08
2022-08-17T19:40:51.664Z,55.10
2022-08-17T19:43:37.982Z,56.11
2022-08-17T19:46:29.909Z,63.73
2022-08-17T19:49:09.921Z,66.75
2022-08-17T19:52:00.396Z,57.21
2022-08-17T19:54:55.330Z,53.59
2022-08-17T19:57:40.781Z,54.94
2022-08-17T20:00:13.592Z,57.07
2022-08-17T20:02:54.984Z,61.54
2022-08-17T20:18:58.732Z,64.65
2022-08-17T20:21:37.326Z,66.95
2022-08-17T20:24:16.224Z,58.06
2022-08-17T20:27:10.108Z,54.54
2022-08-17T20:30:02.701Z,55.61
2022-08-17T20:32:35.495Z,57.45
2022-08-17T20:35:03.863Z,65.05
2022-08-17T20:37:34.840Z,69.58
2022-08-17T20:40:05.926Z,59.48
2022-08-17T20:42:35.136Z,55.21
2022-08-17T20:45:25.121Z,56.31
2022-08-17T20:48:22.233Z,57.46
2022-08-17T20:50:51.489Z,64.99
2022-08-17T20:54:05.680Z,66.48
2022-08-17T20:56:47.350Z,57.29
2022-08-17T20:59:20.724Z,55.21
2022-08-17T21:02:18.091Z,57.03
2022-08-17T21:04:50.040Z,63.52
2022-08-17T21:07:43.479Z,65.20
2022-08-17T21:10:23.889Z,56.99
2022-08-17T21:13:23.048Z,54.34
2022-08-17T21:15:56.649Z,55.39
2022-08-17T21:18:33.210Z,58.15
2022-08-17T21:21:22.480Z,64.96
2022-08-17T21:23:58.903Z,67.42
2022-08-17T21:27:00.895Z,58.58
2022-08-17T21:29:33.840Z,54.47
2022-08-17T21:32:06.639Z,56.17
2022-08-17T21:34:37.695Z,58.47
2022-08-17T21:37:20.502Z,64.95
2022-08-17T21:40:18.504Z,67.70
2022-08-17T21:42:49.527Z,58.51
2022-08-17T21:45:26.066Z,55.67
2022-08-17T21:48:06.088Z,57.14
2022-08-17T21:50:35.574Z,63.70
2022-08-17T21:53:04.027Z,65.86
2022-08-17T21:55:33.407Z,58.08
2022-08-17T21:58:14.824Z,54.76
2022-08-17T22:00:46.136Z,55.91
2022-08-17T22:03:25.977Z,62.60
2022-08-17T22:05:53.638Z,64.24
